sensor_id;sensor_type;location;lat;lon;timestamp;P1;durP1;ratioP1;P2;durP2;ratioP2
18125;SDS011;53956;52.442;13.284;2023-02-26T00:02:28;5.07;;;3.30;;
18125;SDS011;53956;52.442;13.284;2023-02-26T00:04:54;3.50;;;3.00;;
18125;SDS011;53956;52.442;13.284;2023-02-26T00:07:21;6.00;;;2.50;;
18125;SDS011;53956;52.442;13.284;2023-02-26T00:09:47;4.50;;;2.77;;
18125;SDS011;53956;52.442;13.284;2023-02-26T00:12:14;4.17;;;3.30;;
18125;SDS011;53956;52.442;13.284;2023-02-26T00:14:43;3.63;;;3.00;;
18125;SDS011;53956;52.442;13.284;2023-02-26T00:17:22;3.43;;;3.10;;
18125;SDS011;53956;52.442;13.284;2023-02-26T00:19:56;4.23;;;3.27;;
18125;SDS011;53956;52.442;13.284;2023-02-26T00:22:24;4.50;;;3.00;;
18125;SDS011;53956;52.442;13.284;2023-02-26T00:24:51;3.40;;;3.10;;
18125;SDS011;53956;52.442;13.284;2023-02-26T00:27:17;3.67;;;3.37;;
18125;SDS011;53956;52.442;13.284;2023-02-26T00:29:46;5.53;;;3.17;;
18125;SDS011;53956;52.442;13.284;2023-02-26T00:32:14;3.50;;;3.20;;
18125;SDS011;53956;52.442;13.284;2023-02-26T00:34:43;4.33;;;3.30;;
18125;SDS011;53956;52.442;13.284;2023-02-26T00:37:12;3.97;;;3.30;;
18125;SDS011;53956;52.442;13.284;2023-02-26T00:39:49;5.90;;;3.37;;
18125;SDS011;53956;52.442;13.284;2023-02-26T00:42:25;4.67;;;3.30;;
18125;SDS011;53956;52.442;13.284;2023-02-26T00:44:54;3.77;;;3.30;;
18125;SDS011;53956;52.442;13.284;2023-02-26T00:47:23;3.10;;;2.80;;
18125;SDS011;53956;52.442;13.284;2023-02-26T00:49:59;5.70;;;3.27;;
18125;SDS011;53956;52.442;13.284;2023-02-26T00:52:31;4.40;;;3.10;;
18125;SDS011;53956;52.442;13.284;2023-02-26T00:55:06;4.30;;;3.13;;
18125;SDS011;53956;52.442;13.284;2023-02-26T00:57:33;4.87;;;2.83;;
18125;SDS011;53956;52.442;13.284;2023-02-26T01:00:02;5.47;;;3.23;;
18125;SDS011;53956;52.442;13.284;2023-02-26T01:02:30;4.13;;;3.13;;
18125;SDS011;53956;52.442;13.284;2023-02-26T01:04:57;4.50;;;3.13;;
18125;SDS011;53956;52.442;13.284;2023-02-26T01:07:25;3.87;;;2.90;;
18125;SDS011;53956;52.442;13.284;2023-02-26T01:09:55;3.77;;;3.10;;
18125;SDS011;53956;52.442;13.284;2023-02-26T01:12:22;3.53;;;3.03;;
18125;SDS011;53956;52.442;13.284;2023-02-26T01:14:49;3.70;;;3.13;;
18125;SDS011;53956;52.442;13.284;2023-02-26T01:17:19;5.53;;;3.57;;
18125;SDS011;53956;52.442;13.284;2023-02-26T01:19:51;3.57;;;3.27;;
18125;SDS011;53956;52.442;13.284;2023-02-26T01:22:21;3.20;;;2.73;;
18125;SDS011;53956;52.442;13.284;2023-02-26T01:24:55;6.13;;;3.00;;
18125;SDS011;53956;52.442;13.284;2023-02-26T01:27:27;3.30;;;2.93;;
18125;SDS011;53956;52.442;13.284;2023-02-26T01:29:54;5.23;;;3.20;;
18125;SDS011;53956;52.442;13.284;2023-02-26T01:32:24;3.83;;;3.07;;
18125;SDS011;53956;52.442;13.284;2023-02-26T01:34:56;4.30;;;3.17;;
18125;SDS011;53956;52.442;13.284;2023-02-26T01:37:28;3.57;;;2.67;;
18125;SDS011;53956;52.442;13.284;2023-02-26T01:40:08;5.57;;;3.13;;
18125;SDS011;53956;52.442;13.284;2023-02-26T01:42:52;4.50;;;2.70;;
18125;SDS011;53956;52.442;13.284;2023-02-26T01:45:24;3.40;;;3.10;;
18125;SDS011;53956;52.442;13.284;2023-02-26T01:47:59;4.57;;;3.20;;
18125;SDS011;53956;52.442;13.284;2023-02-26T01:50:31;4.00;;;3.20;;
18125;SDS011;53956;52.442;13.284;2023-02-26T01:53:14;4.20;;;3.10;;
18125;SDS011;53956;52.442;13.284;2023-02-26T01:55:43;3.43;;;2.93;;
18125;SDS011;53956;52.442;13.284;2023-02-26T01:58:11;4.50;;;2.93;;
18125;SDS011;53956;52.442;13.284;2023-02-26T02:00:38;4.97;;;3.03;;
18125;SDS011;53956;52.442;13.284;2023-02-26T02:03:06;3.27;;;2.90;;
18125;SDS011;53956;52.442;13.284;2023-02-26T02:05:38;4.43;;;3.30;;
18125;SDS011;53956;52.442;13.284;2023-02-26T02:08:07;6.57;;;2.83;;
18125;SDS011;53956;52.442;13.284;2023-02-26T02:10:35;4.10;;;3.20;;
18125;SDS011;53956;52.442;13.284;2023-02-26T02:13:09;6.37;;;3.20;;
18125;SDS011;53956;52.442;13.284;2023-02-26T02:15:44;3.47;;;2.93;;
18125;SDS011;53956;52.442;13.284;2023-02-26T02:18:19;5.10;;;3.40;;
18125;SDS011;53956;52.442;13.284;2023-02-26T02:21:07;4.77;;;2.90;;
18125;SDS011;53956;52.442;13.284;2023-02-26T02:23:53;4.93;;;3.10;;
18125;SDS011;53956;52.442;13.284;2023-02-26T02:26:41;4.93;;;3.13;;
18125;SDS011;53956;52.442;13.284;2023-02-26T02:29:21;3.50;;;3.10;;
18125;SDS011;53956;52.442;13.284;2023-02-26T02:32:01;5.63;;;3.40;;
18125;SDS011;53956;52.442;13.284;2023-02-26T02:34:34;5.13;;;2.90;;
18125;SDS011;53956;52.442;13.284;2023-02-26T02:37:07;3.67;;;2.93;;
18125;SDS011;53956;52.442;13.284;2023-02-26T02:39:41;2.87;;;2.67;;
18125;SDS011;53956;52.442;13.284;2023-02-26T02:42:16;3.90;;;3.00;;
18125;SDS011;53956;52.442;13.284;2023-02-26T02:44:50;5.23;;;2.80;;
18125;SDS011;53956;52.442;13.284;2023-02-26T02:47:23;2.83;;;2.60;;
18125;SDS011;53956;52.442;13.284;2023-02-26T02:49:54;3.33;;;2.87;;
18125;SDS011;53956;52.442;13.284;2023-02-26T02:52:25;3.17;;;2.87;;
18125;SDS011;53956;52.442;13.284;2023-02-26T02:54:58;3.57;;;2.90;;
18125;SDS011;53956;52.442;13.284;2023-02-26T02:57:28;3.50;;;2.90;;
18125;SDS011;53956;52.442;13.284;2023-02-26T03:00:00;3.40;;;3.03;;
18125;SDS011;53956;52.442;13.284;2023-02-26T03:02:35;3.33;;;2.63;;
18125;SDS011;53956;52.442;13.284;2023-02-26T03:05:04;4.57;;;3.20;;
18125;SDS011;53956;52.442;13.284;2023-02-26T03:07:33;4.30;;;3.10;;
18125;SDS011;53956;52.442;13.284;2023-02-26T03:10:07;5.40;;;3.20;;
18125;SDS011;53956;52.442;13.284;2023-02-26T03:12:35;3.87;;;3.03;;
18125;SDS011;53956;52.442;13.284;2023-02-26T03:15:02;2.97;;;2.63;;
18125;SDS011;53956;52.442;13.284;2023-02-26T03:17:31;3.50;;;2.80;;
18125;SDS011;53956;52.442;13.284;2023-02-26T03:20:08;2.50;;;2.30;;
18125;SDS011;53956;52.442;13.284;2023-02-26T03:22:42;5.27;;;3.20;;
18125;SDS011;53956;52.442;13.284;2023-02-26T03:25:22;3.83;;;2.67;;
18125;SDS011;53956;52.442;13.284;2023-02-26T03:27:56;4.90;;;2.77;;
18125;SDS011;53956;52.442;13.284;2023-02-26T03:30:29;5.83;;;3.60;;
18125;SDS011;53956;52.442;13.284;2023-02-26T03:33:02;3.47;;;3.13;;
18125;SDS011;53956;52.442;13.284;2023-02-26T03:35:37;2.80;;;2.60;;
18125;SDS011;53956;52.442;13.284;2023-02-26T03:38:08;4.37;;;3.03;;
18125;SDS011;53956;52.442;13.284;2023-02-26T03:40:40;5.60;;;2.70;;
18125;SDS011;53956;52.442;13.284;2023-02-26T03:43:13;3.67;;;3.00;;
18125;SDS011;53956;52.442;13.284;2023-02-26T03:45:45;4.23;;;3.13;;
18125;SDS011;53956;52.442;13.284;2023-02-26T03:48:18;3.37;;;2.77;;
18125;SDS011;53956;52.442;13.284;2023-02-26T03:50:48;5.47;;;3.47;;
18125;SDS011;53956;52.442;13.284;2023-02-26T03:53:51;3.70;;;2.80;;
18125;SDS011;53956;52.442;13.284;2023-02-26T03:56:24;3.20;;;2.90;;
18125;SDS011;53956;52.442;13.284;2023-02-26T03:59:23;6.23;;;3.07;;
18125;SDS011;53956;52.442;13.284;2023-02-26T04:02:10;3.90;;;3.00;;
18125;SDS011;53956;52.442;13.284;2023-02-26T04:04:44;3.30;;;3.10;;
18125;SDS011;53956;52.442;13.284;2023-02-26T04:07:13;4.47;;;3.10;;
18125;SDS011;53956;52.442;13.284;2023-02-26T04:09:42;3.50;;;3.20;;
18125;SDS011;53956;52.442;13.284;2023-02-26T04:12:10;3.50;;;3.20;;
18125;SDS011;53956;52.442;13.284;2023-02-26T04:14:41;4.57;;;2.97;;
18125;SDS011;53956;52.442;13.284;2023-02-26T04:17:08;4.20;;;2.90;;
18125;SDS011;53956;52.442;13.284;2023-02-26T04:19:35;5.47;;;2.93;;
18125;SDS011;53956;52.442;13.284;2023-02-26T04:22:03;5.77;;;3.00;;
18125;SDS011;53956;52.442;13.284;2023-02-26T04:24:30;4.60;;;2.90;;
18125;SDS011;53956;52.442;13.284;2023-02-26T04:26:59;4.07;;;2.67;;
18125;SDS011;53956;52.442;13.284;2023-02-26T04:29:26;4.70;;;3.20;;
18125;SDS011;53956;52.442;13.284;2023-02-26T04:31:53;5.63;;;3.10;;
18125;SDS011;53956;52.442;13.284;2023-02-26T04:34:20;4.17;;;3.37;;
18125;SDS011;53956;52.442;13.284;2023-02-26T04:36:48;4.17;;;3.00;;
18125;SDS011;53956;52.442;13.284;2023-02-26T04:39:16;2.90;;;2.70;;
18125;SDS011;53956;52.442;13.284;2023-02-26T04:41:44;3.53;;;2.80;;
18125;SDS011;53956;52.442;13.284;2023-02-26T04:44:11;5.57;;;2.80;;
18125;SDS011;53956;52.442;13.284;2023-02-26T04:46:40;2.97;;;2.67;;
18125;SDS011;53956;52.442;13.284;2023-02-26T04:49:07;3.93;;;3.03;;
18125;SDS011;53956;52.442;13.284;2023-02-26T04:51:35;5.60;;;2.87;;
18125;SDS011;53956;52.442;13.284;2023-02-26T04:54:02;2.83;;;2.40;;
18125;SDS011;53956;52.442;13.284;2023-02-26T04:56:31;4.60;;;2.63;;
18125;SDS011;53956;52.442;13.284;2023-02-26T04:58:59;3.03;;;2.70;;
18125;SDS011;53956;52.442;13.284;2023-02-26T05:01:28;4.20;;;2.73;;
18125;SDS011;53956;52.442;13.284;2023-02-26T05:03:57;3.60;;;3.30;;
18125;SDS011;53956;52.442;13.284;2023-02-26T05:06:23;3.13;;;2.83;;
18125;SDS011;53956;52.442;13.284;2023-02-26T05:08:50;6.07;;;2.90;;
18125;SDS011;53956;52.442;13.284;2023-02-26T05:11:17;3.60;;;2.43;;
18125;SDS011;53956;52.442;13.284;2023-02-26T05:13:46;3.77;;;2.40;;
18125;SDS011;53956;52.442;13.284;2023-02-26T05:16:13;4.73;;;2.53;;
18125;SDS011;53956;52.442;13.284;2023-02-26T05:18:40;3.20;;;2.77;;
18125;SDS011;53956;52.442;13.284;2023-02-26T05:21:07;3.53;;;2.73;;
18125;SDS011;53956;52.442;13.284;2023-02-26T05:23:34;3.53;;;2.53;;
18125;SDS011;53956;52.442;13.284;2023-02-26T05:26:01;4.67;;;2.93;;
18125;SDS011;53956;52.442;13.284;2023-02-26T05:28:28;3.43;;;2.90;;
18125;SDS011;53956;52.442;13.284;2023-02-26T05:30:56;6.00;;;2.90;;
18125;SDS011;53956;52.442;13.284;2023-02-26T05:33:23;3.67;;;2.30;;
18125;SDS011;53956;52.442;13.284;2023-02-26T05:35:50;3.20;;;2.63;;
18125;SDS011;53956;52.442;13.284;2023-02-26T05:38:17;4.70;;;2.73;;
18125;SDS011;53956;52.442;13.284;2023-02-26T05:40:44;5.27;;;2.53;;
18125;SDS011;53956;52.442;13.284;2023-02-26T05:43:11;4.73;;;2.70;;
18125;SDS011;53956;52.442;13.284;2023-02-26T05:45:37;4.00;;;2.90;;
18125;SDS011;53956;52.442;13.284;2023-02-26T05:48:05;4.00;;;3.10;;
18125;SDS011;53956;52.442;13.284;2023-02-26T05:50:32;4.57;;;2.80;;
18125;SDS011;53956;52.442;13.284;2023-02-26T05:52:59;3.23;;;2.67;;
18125;SDS011;53956;52.442;13.284;2023-02-26T05:55:25;4.57;;;2.80;;
18125;SDS011;53956;52.442;13.284;2023-02-26T05:57:52;3.07;;;2.43;;
18125;SDS011;53956;52.442;13.284;2023-02-26T06:00:19;4.33;;;3.03;;
18125;SDS011;53956;52.442;13.284;2023-02-26T06:02:46;3.00;;;2.80;;
18125;SDS011;53956;52.442;13.284;2023-02-26T06:05:14;3.20;;;2.73;;
18125;SDS011;53956;52.442;13.284;2023-02-26T06:07:40;4.73;;;2.90;;
18125;SDS011;53956;52.442;13.284;2023-02-26T06:10:08;4.07;;;2.70;;
18125;SDS011;53956;52.442;13.284;2023-02-26T06:12:36;4.80;;;2.90;;
18125;SDS011;53956;52.442;13.284;2023-02-26T06:15:04;4.47;;;2.70;;
18125;SDS011;53956;52.442;13.284;2023-02-26T06:17:32;3.70;;;2.60;;
18125;SDS011;53956;52.442;13.284;2023-02-26T06:19:59;4.07;;;2.77;;
18125;SDS011;53956;52.442;13.284;2023-02-26T06:22:28;3.93;;;2.60;;
18125;SDS011;53956;52.442;13.284;2023-02-26T06:24:55;2.93;;;2.67;;
18125;SDS011;53956;52.442;13.284;2023-02-26T06:27:21;4.43;;;2.77;;
18125;SDS011;53956;52.442;13.284;2023-02-26T06:29:48;3.00;;;2.70;;
18125;SDS011;53956;52.442;13.284;2023-02-26T06:32:15;4.13;;;2.70;;
18125;SDS011;53956;52.442;13.284;2023-02-26T06:34:41;3.90;;;2.80;;
18125;SDS011;53956;52.442;13.284;2023-02-26T06:37:08;4.17;;;2.77;;
18125;SDS011;53956;52.442;13.284;2023-02-26T06:39:36;2.80;;;2.60;;
18125;SDS011;53956;52.442;13.284;2023-02-26T06:42:03;2.70;;;2.43;;
18125;SDS011;53956;52.442;13.284;2023-02-26T06:44:30;7.63;;;2.70;;
18125;SDS011;53956;52.442;13.284;2023-02-26T06:46:56;5.63;;;2.67;;
18125;SDS011;53956;52.442;13.284;2023-02-26T06:49:23;4.20;;;2.40;;
18125;SDS011;53956;52.442;13.284;2023-02-26T06:51:50;4.77;;;2.70;;
18125;SDS011;53956;52.442;13.284;2023-02-26T06:54:17;2.80;;;2.60;;
18125;SDS011;53956;52.442;13.284;2023-02-26T06:56:45;4.10;;;2.77;;
18125;SDS011;53956;52.442;13.284;2023-02-26T06:59:11;6.93;;;3.17;;
18125;SDS011;53956;52.442;13.284;2023-02-26T07:01:39;3.90;;;2.30;;
18125;SDS011;53956;52.442;13.284;2023-02-26T07:04:06;2.70;;;2.13;;
18125;SDS011;53956;52.442;13.284;2023-02-26T07:06:32;2.80;;;2.50;;
18125;SDS011;53956;52.442;13.284;2023-02-26T07:08:59;2.73;;;2.53;;
18125;SDS011;53956;52.442;13.284;2023-02-26T07:11:26;5.93;;;2.60;;
18125;SDS011;53956;52.442;13.284;2023-02-26T07:13:53;3.23;;;2.57;;
18125;SDS011;53956;52.442;13.284;2023-02-26T07:16:20;4.73;;;2.43;;
18125;SDS011;53956;52.442;13.284;2023-02-26T07:18:47;2.77;;;2.47;;
18125;SDS011;53956;52.442;13.284;2023-02-26T07:21:13;2.47;;;2.27;;
18125;SDS011;53956;52.442;13.284;2023-02-26T07:23:40;2.43;;;2.20;;
18125;SDS011;53956;52.442;13.284;2023-02-26T07:26:07;3.30;;;2.20;;
18125;SDS011;53956;52.442;13.284;2023-02-26T07:28:33;4.27;;;2.60;;
18125;SDS011;53956;52.442;13.284;2023-02-26T07:31:02;2.90;;;2.37;;
18125;SDS011;53956;52.442;13.284;2023-02-26T07:33:29;4.43;;;2.50;;
18125;SDS011;53956;52.442;13.284;2023-02-26T07:35:56;3.73;;;2.40;;
18125;SDS011;53956;52.442;13.284;2023-02-26T07:38:22;4.67;;;2.60;;
18125;SDS011;53956;52.442;13.284;2023-02-26T07:40:49;2.90;;;2.37;;
18125;SDS011;53956;52.442;13.284;2023-02-26T07:43:16;4.07;;;2.50;;
18125;SDS011;53956;52.442;13.284;2023-02-26T07:45:42;4.17;;;2.73;;
18125;SDS011;53956;52.442;13.284;2023-02-26T07:48:10;5.77;;;2.80;;
18125;SDS011;53956;52.442;13.284;2023-02-26T07:50:37;4.13;;;2.60;;
18125;SDS011;53956;52.442;13.284;2023-02-26T07:53:03;5.07;;;2.23;;
18125;SDS011;53956;52.442;13.284;2023-02-26T07:55:30;3.73;;;2.33;;
18125;SDS011;53956;52.442;13.284;2023-02-26T07:57:57;3.40;;;2.10;;
18125;SDS011;53956;52.442;13.284;2023-02-26T08:00:23;5.57;;;2.40;;
18125;SDS011;53956;52.442;13.284;2023-02-26T08:02:50;4.70;;;2.00;;
18125;SDS011;53956;52.442;13.284;2023-02-26T08:05:18;2.80;;;2.10;;
18125;SDS011;53956;52.442;13.284;2023-02-26T08:07:45;3.10;;;1.83;;
18125;SDS011;53956;52.442;13.284;2023-02-26T08:10:11;4.03;;;1.93;;
18125;SDS011;53956;52.442;13.284;2023-02-26T08:12:38;2.67;;;1.70;;
18125;SDS011;53956;52.442;13.284;2023-02-26T08:15:05;3.70;;;1.60;;
18125;SDS011;53956;52.442;13.284;2023-02-26T08:17:32;4.97;;;2.30;;
18125;SDS011;53956;52.442;13.284;2023-02-26T08:19:59;8.33;;;3.00;;
18125;SDS011;53956;52.442;13.284;2023-02-26T08:22:27;3.07;;;1.70;;
18125;SDS011;53956;52.442;13.284;2023-02-26T08:24:54;2.87;;;1.40;;
18125;SDS011;53956;52.442;13.284;2023-02-26T08:27:21;2.53;;;1.80;;
18125;SDS011;53956;52.442;13.284;2023-02-26T08:29:47;3.47;;;1.80;;
18125;SDS011;53956;52.442;13.284;2023-02-26T08:32:15;3.70;;;2.13;;
18125;SDS011;53956;52.442;13.284;2023-02-26T08:34:43;4.27;;;1.87;;
18125;SDS011;53956;52.442;13.284;2023-02-26T08:37:10;3.43;;;1.80;;
18125;SDS011;53956;52.442;13.284;2023-02-26T08:39:39;4.00;;;2.00;;
18125;SDS011;53956;52.442;13.284;2023-02-26T08:42:06;5.27;;;2.40;;
18125;SDS011;53956;52.442;13.284;2023-02-26T08:44:34;3.30;;;1.70;;
18125;SDS011;53956;52.442;13.284;2023-02-26T08:47:00;3.07;;;1.97;;
18125;SDS011;53956;52.442;13.284;2023-02-26T08:49:27;3.50;;;1.80;;
18125;SDS011;53956;52.442;13.284;2023-02-26T08:51:54;5.27;;;2.13;;
18125;SDS011;53956;52.442;13.284;2023-02-26T08:54:21;3.20;;;1.80;;
18125;SDS011;53956;52.442;13.284;2023-02-26T08:56:49;3.83;;;1.80;;
18125;SDS011;53956;52.442;13.284;2023-02-26T08:59:17;3.27;;;1.80;;
18125;SDS011;53956;52.442;13.284;2023-02-26T09:01:44;4.00;;;2.10;;
18125;SDS011;53956;52.442;13.284;2023-02-26T09:04:10;3.47;;;2.10;;
18125;SDS011;53956;52.442;13.284;2023-02-26T09:06:37;3.00;;;1.80;;
18125;SDS011;53956;52.442;13.284;2023-02-26T09:09:04;2.53;;;1.60;;
18125;SDS011;53956;52.442;13.284;2023-02-26T09:11:30;2.87;;;1.70;;
18125;SDS011;53956;52.442;13.284;2023-02-26T09:13:58;4.70;;;1.83;;
18125;SDS011;53956;52.442;13.284;2023-02-26T09:16:26;3.30;;;1.90;;
18125;SDS011;53956;52.442;13.284;2023-02-26T09:18:54;2.70;;;1.80;;
18125;SDS011;53956;52.442;13.284;2023-02-26T09:21:21;4.03;;;2.00;;
18125;SDS011;53956;52.442;13.284;2023-02-26T09:23:48;4.03;;;2.17;;
18125;SDS011;53956;52.442;13.284;2023-02-26T09:26:15;4.10;;;2.03;;
18125;SDS011;53956;52.442;13.284;2023-02-26T09:28:42;2.90;;;1.70;;
18125;SDS011;53956;52.442;13.284;2023-02-26T09:31:10;2.63;;;1.70;;
18125;SDS011;53956;52.442;13.284;2023-02-26T09:33:36;3.37;;;1.80;;
18125;SDS011;53956;52.442;13.284;2023-02-26T09:36:03;4.00;;;2.27;;
18125;SDS011;53956;52.442;13.284;2023-02-26T09:38:31;4.60;;;1.80;;
18125;SDS011;53956;52.442;13.284;2023-02-26T09:41:00;3.43;;;1.87;;
18125;SDS011;53956;52.442;13.284;2023-02-26T09:43:48;5.03;;;2.00;;
18125;SDS011;53956;52.442;13.284;2023-02-26T09:46:29;4.43;;;2.40;;
18125;SDS011;53956;52.442;13.284;2023-02-26T09:49:04;4.47;;;2.00;;
18125;SDS011;53956;52.442;13.284;2023-02-26T09:51:41;5.50;;;2.40;;
18125;SDS011;53956;52.442;13.284;2023-02-26T09:54:14;3.23;;;2.10;;
18125;SDS011;53956;52.442;13.284;2023-02-26T09:56:44;3.83;;;2.10;;
18125;SDS011;53956;52.442;13.284;2023-02-26T09:59:13;3.37;;;2.37;;
18125;SDS011;53956;52.442;13.284;2023-02-26T10:01:43;3.93;;;1.90;;
18125;SDS011;53956;52.442;13.284;2023-02-26T10:04:20;5.43;;;2.40;;
18125;SDS011;53956;52.442;13.284;2023-02-26T10:06:55;6.40;;;2.50;;
18125;SDS011;53956;52.442;13.284;2023-02-26T10:09:32;2.47;;;2.20;;
18125;SDS011;53956;52.442;13.284;2023-02-26T10:12:15;2.50;;;2.30;;
18125;SDS011;53956;52.442;13.284;2023-02-26T10:14:45;6.57;;;2.23;;
18125;SDS011;53956;52.442;13.284;2023-02-26T10:17:19;3.77;;;2.30;;
18125;SDS011;53956;52.442;13.284;2023-02-26T10:19:50;3.07;;;2.23;;
18125;SDS011;53956;52.442;13.284;2023-02-26T10:22:22;3.40;;;2.30;;
18125;SDS011;53956;52.442;13.284;2023-02-26T10:24:53;3.73;;;2.23;;
18125;SDS011;53956;52.442;13.284;2023-02-26T10:27:26;3.13;;;2.07;;
18125;SDS011;53956;52.442;13.284;2023-02-26T10:30:04;2.73;;;2.27;;
18125;SDS011;53956;52.442;13.284;2023-02-26T10:32:40;2.10;;;1.77;;
18125;SDS011;53956;52.442;13.284;2023-02-26T10:35:13;4.23;;;2.20;;
18125;SDS011;53956;52.442;13.284;2023-02-26T10:37:43;4.77;;;2.00;;
18125;SDS011;53956;52.442;13.284;2023-02-26T10:40:15;2.20;;;2.00;;
18125;SDS011;53956;52.442;13.284;2023-02-26T10:42:46;4.13;;;2.00;;
18125;SDS011;53956;52.442;13.284;2023-02-26T10:45:21;2.60;;;1.90;;
18125;SDS011;53956;52.442;13.284;2023-02-26T10:48:07;3.10;;;2.40;;
18125;SDS011;53956;52.442;13.284;2023-02-26T10:50:47;5.60;;;2.03;;
18125;SDS011;53956;52.442;13.284;2023-02-26T10:53:16;2.90;;;2.00;;
18125;SDS011;53956;52.442;13.284;2023-02-26T10:55:43;4.23;;;2.00;;
18125;SDS011;53956;52.442;13.284;2023-02-26T10:58:15;2.97;;;2.10;;
18125;SDS011;53956;52.442;13.284;2023-02-26T11:00:49;2.63;;;1.90;;
18125;SDS011;53956;52.442;13.284;2023-02-26T11:03:20;1.93;;;1.77;;
18125;SDS011;53956;52.442;13.284;2023-02-26T11:05:55;4.97;;;2.00;;
18125;SDS011;53956;52.442;13.284;2023-02-26T11:08:23;2.30;;;1.90;;
18125;SDS011;53956;52.442;13.284;2023-02-26T11:10:53;3.60;;;1.70;;
18125;SDS011;53956;52.442;13.284;2023-02-26T11:13:21;3.53;;;2.33;;
18125;SDS011;53956;52.442;13.284;2023-02-26T11:15:49;3.97;;;1.90;;
18125;SDS011;53956;52.442;13.284;2023-02-26T11:18:20;3.63;;;2.00;;
18125;SDS011;53956;52.442;13.284;2023-02-26T11:20:49;2.27;;;1.90;;
18125;SDS011;53956;52.442;13.284;2023-02-26T11:23:20;2.40;;;1.80;;
18125;SDS011;53956;52.442;13.284;2023-02-26T11:25:51;2.00;;;1.80;;
18125;SDS011;53956;52.442;13.284;2023-02-26T11:28:21;3.10;;;1.80;;
18125;SDS011;53956;52.442;13.284;2023-02-26T11:30:51;3.23;;;2.20;;
18125;SDS011;53956;52.442;13.284;2023-02-26T11:33:22;3.83;;;2.20;;
18125;SDS011;53956;52.442;13.284;2023-02-26T11:35:52;2.90;;;2.00;;
18125;SDS011;53956;52.442;13.284;2023-02-26T11:38:24;4.60;;;2.13;;
18125;SDS011;53956;52.442;13.284;2023-02-26T11:40:53;3.60;;;2.10;;
18125;SDS011;53956;52.442;13.284;2023-02-26T11:43:22;3.67;;;1.97;;
18125;SDS011;53956;52.442;13.284;2023-02-26T11:45:51;2.53;;;1.90;;
18125;SDS011;53956;52.442;13.284;2023-02-26T11:48:22;2.00;;;1.80;;
18125;SDS011;53956;52.442;13.284;2023-02-26T11:50:52;4.67;;;2.10;;
18125;SDS011;53956;52.442;13.284;2023-02-26T11:53:23;3.00;;;2.07;;
18125;SDS011;53956;52.442;13.284;2023-02-26T11:55:57;4.57;;;2.23;;
18125;SDS011;53956;52.442;13.284;2023-02-26T11:58:27;4.43;;;2.10;;
18125;SDS011;53956;52.442;13.284;2023-02-26T12:00:57;2.97;;;2.00;;
18125;SDS011;53956;52.442;13.284;2023-02-26T12:03:28;2.10;;;1.90;;
18125;SDS011;53956;52.442;13.284;2023-02-26T12:05:58;3.27;;;2.20;;
18125;SDS011;53956;52.442;13.284;2023-02-26T12:08:28;3.00;;;2.27;;
18125;SDS011;53956;52.442;13.284;2023-02-26T12:11:12;8.60;;;2.20;;
18125;SDS011;53956;52.442;13.284;2023-02-26T12:13:55;4.07;;;2.20;;
18125;SDS011;53956;52.442;13.284;2023-02-26T12:16:30;3.13;;;1.93;;
18125;SDS011;53956;52.442;13.284;2023-02-26T12:19:08;3.10;;;2.00;;
18125;SDS011;53956;52.442;13.284;2023-02-26T12:21:49;2.37;;;2.17;;
18125;SDS011;53956;52.442;13.284;2023-02-26T12:24:33;3.30;;;2.10;;
18125;SDS011;53956;52.442;13.284;2023-02-26T12:27:32;2.47;;;2.10;;
18125;SDS011;53956;52.442;13.284;2023-02-26T12:30:19;2.87;;;2.23;;
18125;SDS011;53956;52.442;13.284;2023-02-26T12:33:09;2.60;;;1.97;;
18125;SDS011;53956;52.442;13.284;2023-02-26T12:35:46;2.47;;;2.20;;
18125;SDS011;53956;52.442;13.284;2023-02-26T12:38:27;5.03;;;2.20;;
18125;SDS011;53956;52.442;13.284;2023-02-26T12:43:49;3.27;;;2.10;;
18125;SDS011;53956;52.442;13.284;2023-02-26T12:46:29;3.77;;;2.37;;
18125;SDS011;53956;52.442;13.284;2023-02-26T12:49:19;5.23;;;2.30;;
18125;SDS011;53956;52.442;13.284;2023-02-26T12:52:06;3.13;;;2.00;;
18125;SDS011;53956;52.442;13.284;2023-02-26T12:54:48;2.45;;;2.20;;
18125;SDS011;53956;52.442;13.284;2023-02-26T13:00:27;4.00;;;2.10;;
18125;SDS011;53956;52.442;13.284;2023-02-26T13:06:13;3.23;;;2.07;;
18125;SDS011;53956;52.442;13.284;2023-02-26T13:09:01;5.17;;;2.57;;
18125;SDS011;53956;52.442;13.284;2023-02-26T13:11:39;3.33;;;2.37;;
18125;SDS011;53956;52.442;13.284;2023-02-26T13:14:27;3.80;;;2.40;;
18125;SDS011;53956;52.442;13.284;2023-02-26T13:17:05;4.37;;;2.30;;
18125;SDS011;53956;52.442;13.284;2023-02-26T13:19:37;4.00;;;2.30;;
18125;SDS011;53956;52.442;13.284;2023-02-26T13:22:12;2.63;;;2.07;;
18125;SDS011;53956;52.442;13.284;2023-02-26T13:24:48;2.50;;;2.30;;
18125;SDS011;53956;52.442;13.284;2023-02-26T13:27:20;3.50;;;2.47;;
18125;SDS011;53956;52.442;13.284;2023-02-26T13:29:54;3.77;;;2.00;;
18125;SDS011;53956;52.442;13.284;2023-02-26T13:32:30;3.60;;;2.10;;
18125;SDS011;53956;52.442;13.284;2023-02-26T13:34:59;2.70;;;2.10;;
18125;SDS011;53956;52.442;13.284;2023-02-26T13:37:30;4.63;;;2.20;;
18125;SDS011;53956;52.442;13.284;2023-02-26T13:40:15;2.90;;;2.40;;
18125;SDS011;53956;52.442;13.284;2023-02-26T13:43:02;2.70;;;2.10;;
18125;SDS011;53956;52.442;13.284;2023-02-26T13:45:37;2.20;;;2.00;;
18125;SDS011;53956;52.442;13.284;2023-02-26T13:48:16;4.13;;;2.33;;
18125;SDS011;53956;52.442;13.284;2023-02-26T13:50:55;4.17;;;2.20;;
18125;SDS011;53956;52.442;13.284;2023-02-26T13:53:34;2.93;;;2.40;;
18125;SDS011;53956;52.442;13.284;2023-02-26T13:56:16;4.00;;;2.30;;
18125;SDS011;53956;52.442;13.284;2023-02-26T13:58:48;4.13;;;2.50;;
18125;SDS011;53956;52.442;13.284;2023-02-26T14:01:18;2.43;;;2.23;;
18125;SDS011;53956;52.442;13.284;2023-02-26T14:03:51;2.40;;;2.20;;
18125;SDS011;53956;52.442;13.284;2023-02-26T14:06:39;2.40;;;2.20;;
18125;SDS011;53956;52.442;13.284;2023-02-26T14:09:29;2.57;;;1.97;;
18125;SDS011;53956;52.442;13.284;2023-02-26T14:18:16;2.90;;;2.10;;
18125;SDS011;53956;52.442;13.284;2023-02-26T14:20:50;2.30;;;2.10;;
18125;SDS011;53956;52.442;13.284;2023-02-26T14:23:21;3.10;;;2.03;;
18125;SDS011;53956;52.442;13.284;2023-02-26T14:26:03;3.93;;;2.03;;
18125;SDS011;53956;52.442;13.284;2023-02-26T14:28:41;3.37;;;2.30;;
18125;SDS011;53956;52.442;13.284;2023-02-26T14:31:14;2.83;;;2.00;;
18125;SDS011;53956;52.442;13.284;2023-02-26T14:33:44;2.47;;;2.10;;
18125;SDS011;53956;52.442;13.284;2023-02-26T14:36:18;4.87;;;2.40;;
18125;SDS011;53956;52.442;13.284;2023-02-26T14:38:48;2.63;;;2.10;;
18125;SDS011;53956;52.442;13.284;2023-02-26T14:41:23;3.47;;;2.10;;
18125;SDS011;53956;52.442;13.284;2023-02-26T14:43:57;2.73;;;2.10;;
18125;SDS011;53956;52.442;13.284;2023-02-26T14:46:27;3.17;;;1.90;;
18125;SDS011;53956;52.442;13.284;2023-02-26T14:48:55;2.30;;;2.10;;
18125;SDS011;53956;52.442;13.284;2023-02-26T14:51:25;4.03;;;2.57;;
18125;SDS011;53956;52.442;13.284;2023-02-26T14:54:04;2.70;;;2.00;;
18125;SDS011;53956;52.442;13.284;2023-02-26T14:56:58;2.60;;;2.13;;
18125;SDS011;53956;52.442;13.284;2023-02-26T15:02:25;3.20;;;2.17;;
18125;SDS011;53956;52.442;13.284;2023-02-26T15:05:15;2.43;;;2.07;;
18125;SDS011;53956;52.442;13.284;2023-02-26T15:08:10;5.80;;;2.17;;
18125;SDS011;53956;52.442;13.284;2023-02-26T15:10:50;3.40;;;1.90;;
18125;SDS011;53956;52.442;13.284;2023-02-26T15:13:31;3.13;;;2.10;;
18125;SDS011;53956;52.442;13.284;2023-02-26T15:16:10;2.10;;;2.00;;
18125;SDS011;53956;52.442;13.284;2023-02-26T15:18:53;3.30;;;2.17;;